Latest Weather Observations for Garden Island

IDW60901

Issued at 9:11 am WST Wednesday 21 April 2021 (issued every 10 minutes, with the page automatically refreshed every 10 minutes)

About weather observations | Map of Perth area stations | Latest observations for Perth area | Other Formats
Station Details ID: 009256 Name: GARDEN ISLAND HSF Lat: -32.24 Lon: 115.68 Height: 6.0 m
Data from the previous 72 hours. | See also: Recent months at Garden Island
Date/Time
WST
Temp
°C
App
Temp
°C
Dew
Point
°C
Rel
Hum
%
Delta-T
°C
Wind Press
QNH
hPa
Press
MSL
hPa
Rain since
9am
mm
Dir  Spd
km/h
Gust
km/h
Spd
kts
Gust
kts
21/09:00am 17.7 16.6 13.0 74 2.6 ESE 11 15 6 8 1024.6 1024.6 0.0
21/08:30am 16.7 14.4 13.0 79 2.1 SSE 17 19 9 10 1024.5 1024.5 0.0
21/08:00am 16.1 14.2 13.0 82 1.7 SE 15 20 8 11 1024.2 1024.2 0.0
21/07:30am 15.2 12.4 12.5 84 1.5 SSE 19 22 10 12 1024.1 1024.1 0.0
21/07:00am 15.0 12.9 12.5 85 1.4 ESE 15 19 8 10 1023.7 1023.7 0.0
21/06:30am 15.2 12.5 12.9 86 1.3 SE 19 20 10 11 1023.4 1023.4 0.0
21/06:00am 15.2 11.7 12.3 83 1.6 SE 22 26 12 14 1023.3 1023.3 0.0
21/05:30am 15.4 12.1 12.7 84 1.5 SSE 22 26 12 14 1023.4 1023.4 0.0
21/05:00am 15.6 12.8 12.7 83 1.6 SE 19 24 10 13 1022.9 1022.9 0.0
21/04:30am 15.9 12.7 13.0 83 1.6 SSE 22 28 12 15 1022.5 1022.5 0.0
21/04:00am 15.8 12.8 12.5 81 1.8 SSE 20 24 11 13 1022.5 1022.5 0.0
21/03:30am 16.1 12.9 13.0 82 1.7 SSE 22 28 12 15 1022.3 1022.3 0.0
21/03:00am 16.5 13.5 13.6 83 1.6 SSE 22 26 12 14 1022.6 1022.6 0.0
21/02:30am 16.5 13.3 13.0 80 1.9 SSE 22 24 12 13 1022.5 1022.5 0.0
21/02:00am 17.0 14.1 13.9 82 1.8 SSE 22 26 12 14 1022.6 1022.6 0.0
21/01:30am 17.3 13.4 13.4 78 2.2 SSE 26 30 14 16 1022.6 1022.6 0.0
21/01:00am 18.1 14.5 14.2 78 2.2 SSE 26 30 14 16 1022.4 1022.4 0.0
21/12:30am 18.3 15.4 15.0 81 1.9 SSE 24 30 13 16 1022.2 1022.2 0.0
21/12:00am 18.5 16.5 15.6 83 1.7 SSE 20 24 11 13 1022.1 1022.1 0.0
 
Date/Time
WST
Temp
°C
App
Temp
°C
Dew
Point
°C
Rel
Hum
%
Delta-T
°C
Wind Press
QNH
hPa
Press
MSL
hPa
Rain since
9am
mm
Dir  Spd
km/h
Gust
km/h
Spd
kts
Gust
kts
20/11:30pm 18.7 16.8 15.8 83 1.7 SSE 20 24 11 13 1022.1 1022.1 0.0
20/11:00pm 18.7 17.1 15.9 84 1.7 SSE 19 24 10 13 1022.2 1022.2 0.0
20/10:30pm 18.9 17.3 16.1 84 1.7 SSE 19 20 10 11 1022.2 1022.2 0.0
20/10:00pm 18.9 18.1 16.0 83 1.7 SSE 15 19 8 10 1022.1 1022.1 0.0
20/09:30pm 18.7 17.2 15.4 81 1.9 SSE 17 19 9 10 1022.1 1022.1 0.0
20/09:00pm 19.1 17.6 15.4 79 2.2 SSE 17 22 9 12 1021.8 1021.8 0.0
20/08:30pm 19.6 17.5 15.3 76 2.5 S 20 22 11 12 1021.9 1021.9 0.0
20/08:00pm 19.7 17.3 15.4 76 2.5 S 22 28 12 15 1021.9 1021.9 0.0
20/07:30pm 19.7 16.5 15.4 76 2.5 S 26 32 14 17 1021.9 1021.9 0.0
20/07:00pm 19.9 15.9 15.1 74 2.8 S 30 33 16 18 1021.6 1021.6 0.0
20/06:30pm 20.0 15.9 14.8 72 3.0 S 30 33 16 18 1021.2 1021.2 0.0
20/06:00pm 19.9 15.6 15.5 76 2.6 SSW 32 35 17 19 1021.0 1021.0 0.0
20/05:30pm 20.0 16.1 16.4 80 2.2 SSW 32 35 17 19 1020.7 1020.7 0.0
20/05:00pm 19.9 15.4 15.5 76 2.6 SSW 33 37 18 20 1020.4 1020.4 0.0
20/04:30pm 20.4 16.9 16.4 78 2.4 SSW 30 35 16 19 1020.3 1020.3 0.0
20/04:00pm 20.3 17.1 16.3 78 2.4 SSW 28 32 15 17 1020.3 1020.3 0.0
20/03:30pm 20.9 17.6 16.1 74 2.9 SSW 28 32 15 17 1020.4 1020.4 0.0
20/03:00pm 21.2 18.3 16.0 72 3.1 SSW 26 30 14 16 1020.3 1020.3 0.0
20/02:30pm 21.4 19.5 16.6 74 2.9 SSW 22 28 12 15 1020.2 1020.2 0.0
20/02:00pm 21.6 20.2 16.6 73 3.0 SW 19 22 10 12 1020.4 1020.4 0.0
20/01:30pm 21.4 20.6 16.1 72 3.2 SSW 15 20 8 11 1020.4 1020.4 0.0
20/01:00pm 21.3 20.6 16.3 73 3.0 SSW 15 20 8 11 1020.6 1020.6 0.0
20/12:30pm 21.2 19.7 16.2 73 3.0 SSW 19 20 10 11 1021.1 1021.1 0.0
20/12:00pm 21.7 21.4 15.5 68 3.7 SW 11 13 6 7 1021.2 1021.2 0.0
20/11:30am 22.0 21.8 15.8 68 3.7 SSW 11 13 6 7 1021.4 1021.4 0.0
20/11:00am 22.3 21.9 14.2 60 4.7 NE 9 13 5 7 1021.5 1021.5 0.0
20/10:30am 21.7 21.2 14.8 65 4.1 NE 11 13 6 7 1021.5 1021.5 0.0
20/10:00am 20.9 20.5 15.2 70 3.4 NE 11 15 6 8 1021.7 1021.7 0.0
20/09:30am 19.8 19.3 15.0 74 2.8 E 11 15 6 8 1021.7 1021.7 0.0
20/09:00am 18.7 18.3 15.2 80 2.0 ESE 11 13 6 7 1021.9 1021.9 0.0
20/08:30am 17.9 17.4 15.0 83 1.7 ESE 11 15 6 8 1021.8 1021.8 0.0
20/08:00am 17.2 16.7 14.8 86 1.4 ESE 11 13 6 7 1021.5 1021.5 0.0
20/07:30am 16.7 15.9 15.1 90 0.9 SE 13 17 7 9 1021.2 1021.2 0.0
20/07:00am 16.6 15.4 15.1 91 0.9 SSE 15 17 8 9 1020.9 1020.9 0.0
20/06:30am 16.8 15.6 15.0 89 1.0 SSE 15 19 8 10 1020.7 1020.7 0.0
20/06:00am 16.4 15.2 15.1 92 0.7 SE 15 19 8 10 1020.5 1020.5 0.0
20/05:30am 15.9 15.7 14.8 93 0.6 ESE 9 11 5 6 1020.0 1020.0 0.0
20/05:00am 15.9 15.7 14.6 92 0.7 ENE 9 13 5 7 1019.6 1019.6 0.0
20/04:30am 16.0 15.4 14.5 91 0.9 ENE 11 13 6 7 1019.5 1019.5 0.0
20/04:00am 16.2 14.8 14.6 90 0.9 E 15 22 8 12 1019.3 1019.3 0.0
20/03:30am 15.9 14.9 14.6 92 0.7 ENE 13 20 7 11 1019.4 1019.4 0.0
20/03:00am 16.1 15.3 15.1 94 0.6 E 13 17 7 9 1019.5 1019.5 0.0
20/02:30am 16.6 16.3 15.5 93 0.6 ESE 11 17 6 9 1019.5 1019.5 0.0
20/02:00am 17.1 16.3 16.0 93 0.6 SE 15 19 8 10 1019.5 1019.5 0.0
20/01:30am 17.7 17.1 16.7 94 0.6 SSE 15 17 8 9 1019.5 1019.5 0.0
20/01:00am 18.2 17.4 17.0 93 0.7 SSE 17 17 9 9 1019.4 1019.4 0.0
20/12:30am 18.3 17.8 16.8 91 0.9 S 15 17 8 9 1019.3 1019.3 0.0
20/12:00am 18.4 17.9 16.9 91 0.9 SSE 15 17 8 9 1019.3 1019.3 0.0
 
Date/Time
WST
Temp
°C
App
Temp
°C
Dew
Point
°C
Rel
Hum
%
Delta-T
°C
Wind Press
QNH
hPa
Press
MSL
hPa
Rain since
9am
mm
Dir  Spd
km/h
Gust
km/h
Spd
kts
Gust
kts
19/11:30pm 18.4 18.4 17.1 92 0.8 S 13 17 7 9 1019.4 1019.4 0.0
19/11:00pm 18.4 18.4 17.1 92 0.8 SSE 13 15 7 8 1019.5 1019.5 0.0
19/10:30pm 18.3 17.8 16.8 91 0.9 SSE 15 17 8 9 1019.6 1019.6 0.0
19/10:00pm 18.4 17.8 16.7 90 1.0 SE 15 17 8 9 1019.5 1019.5 0.0
19/09:30pm 18.6 18.0 16.6 88 1.2 SE 15 17 8 9 1019.5 1019.5 0.0
19/09:00pm 19.3 18.8 16.9 86 1.4 SSE 15 17 8 9 1019.4 1019.4 0.0
19/08:30pm 20.1 18.4 17.3 84 1.7 S 22 26 12 14 1019.2 1019.2 0.0
19/08:00pm 20.4 17.7 17.6 84 1.7 S 28 30 15 16 1019.2 1019.2 0.0
19/07:30pm 20.4 17.5 17.0 81 2.1 S 28 32 15 17 1019.0 1019.0 0.0
19/07:00pm 20.5 17.4 16.5 78 2.4 SSW 28 32 15 17 1019.1 1019.1 0.0
19/06:30pm 20.5 17.7 16.3 77 2.5 SSW 26 32 14 17 1018.7 1018.7 0.0
19/06:00pm 20.3 16.4 15.5 74 2.8 SSW 30 35 16 19 1018.6 1018.6 0.0
19/05:30pm 20.6 17.3 16.0 75 2.8 SSW 28 30 15 16 1018.6 1018.6 0.0
19/05:00pm 20.5 17.4 15.5 73 3.0 SSW 26 30 14 16 1018.5 1018.5 0.0
19/04:30pm 20.6 17.6 15.8 74 2.9 SSW 26 30 14 16 1018.5 1018.5 0.0
19/04:00pm 20.4 17.4 14.7 70 3.3 SSW 24 30 13 16 1018.6 1018.6 0.0
19/03:30pm 20.3 17.1 15.3 73 3.0 SSW 26 30 14 16 1018.6 1018.6 0.0
19/03:00pm 20.2 17.2 14.8 71 3.2 SSW 24 30 13 16 1018.7 1018.7 0.0
19/02:30pm 20.0 17.2 14.4 70 3.3 SSW 22 26 12 14 1018.6 1018.6 0.0
19/02:00pm 20.2 16.1 13.9 67 3.6 SSW 28 32 15 17 1018.6 1018.6 0.0
19/01:30pm 20.3 16.7 13.0 63 4.1 S 24 28 13 15 1018.6 1018.6 0.0
19/01:00pm 20.2 16.6 13.2 64 4.0 S 24 32 13 17 1019.0 1019.0 0.0
19/12:30pm 20.3 17.2 14.4 69 3.4 S 24 30 13 16 1019.4 1019.4 0.0
19/12:00pm 19.8 16.4 13.7 68 3.5 S 24 30 13 16 1019.7 1019.7 0.0
19/11:30am 19.3 15.5 13.5 69 3.3 S 26 30 14 16 1020.2 1020.2 0.0
19/11:00am 19.3 15.7 14.1 72 3.0 S 26 32 14 17 1020.4 1020.4 0.0
19/10:30am 18.9 16.5 14.4 75 2.6 SSE 20 22 11 12 1020.6 1020.6 0.0
19/10:00am 18.7 17.3 14.6 77 2.4 SSE 15 17 8 9 1020.8 1020.8 0.0
19/09:30am 18.1 17.0 14.2 78 2.2 SSE 13 15 7 8 1020.8 1020.8 0.0
19/09:00am 17.6 16.9 14.3 81 1.9 SE 11 13 6 7 1020.9 1020.9 0.0
19/08:30am 17.2 16.0 13.9 81 1.9 E 13 15 7 8 1020.5 1020.5 0.0
19/08:00am 16.6 15.7 13.7 83 1.6 ESE 11 15 6 8 1020.6 1020.6 0.0
19/07:30am 16.8 15.5 13.7 82 1.8 ESE 13 17 7 9 1020.6 1020.6 0.0
19/07:00am 16.7 14.6 13.6 82 1.7 SE 17 20 9 11 1020.3 1020.3 0.0
19/06:30am 16.8 14.4 13.9 83 1.6 SE 19 22 10 12 1020.1 1020.1 0.0
19/06:00am 17.0 14.6 13.9 82 1.8 SSE 19 22 10 12 1020.0 1020.0 0.0
19/05:30am 17.0 14.4 13.7 81 1.9 SSE 20 24 11 13 1020.0 1020.0 0.0
19/05:00am 17.5 15.0 14.2 81 1.9 SSE 20 22 11 12 1020.1 1020.1 0.0
19/04:30am 17.9 14.9 13.8 77 2.3 SSE 22 26 12 14 1019.9 1019.9 0.0
19/04:00am 18.3 16.0 14.2 77 2.3 SSE 19 20 10 11 1019.8 1019.8 0.0
19/03:30am 18.3 16.4 14.2 77 2.4 SSE 17 19 9 10 1019.7 1019.7 0.0
19/03:00am 18.2 15.6 13.1 72 2.9 SSE 19 20 10 11 1019.9 1019.9 0.0
19/02:30am 18.3 15.4 13.0 71 3.0 SSE 20 22 11 12 1019.9 1019.9 0.0
19/02:00am 18.3 15.8 13.4 73 2.8 SSE 19 24 10 13 1020.2 1020.2 0.0
19/01:30am 18.2 15.6 13.3 73 2.8 SSE 19 22 10 12 1020.4 1020.4 0.0
19/01:00am 18.3 15.4 13.0 71 3.0 SSE 20 22 11 12 1020.4 1020.4 0.0
19/12:30am 18.4 16.0 13.9 75 2.6 SSE 19 20 10 11 1020.6 1020.6 0.0
19/12:00am 19.4 16.2 14.2 72 3.0 S 24 28 13 15 1020.7 1020.7 0.0
 
Date/Time
WST
Temp
°C
App
Temp
°C
Dew
Point
°C
Rel
Hum
%
Delta-T
°C
Wind Press
QNH
hPa
Press
MSL
hPa
Rain since
9am
mm
Dir  Spd
km/h
Gust
km/h
Spd
kts
Gust
kts
18/11:30pm 20.0 15.9 14.8 72 3.0 S 30 37 16 20 1021.2 1021.2 0.0
18/11:00pm 20.0 17.2 15.4 75 2.7 S 24 30 13 16 1021.4 1021.4 0.0
18/10:30pm 19.6 18.1 16.3 81 2.0 S 19 20 10 11 1021.6 1021.6 0.0
18/10:00pm 19.4 17.8 16.1 81 2.0 SSE 19 20 10 11 1021.8 1021.8 0.0
18/09:30pm 19.6 18.5 16.3 81 2.0 SSE 17 17 9 9 1021.8 1021.8 0.0
18/09:00pm 20.7 18.7 17.5 82 2.0 S 24 28 13 15 1021.8 1021.8 0.0
18/08:30pm 21.1 18.5 17.7 81 2.1 S 28 32 15 17 1021.6 1021.6 0.0
18/08:00pm 21.3 19.2 17.1 77 2.6 S 24 30 13 16 1021.6 1021.6 0.0
18/07:30pm 21.4 18.4 16.8 75 2.8 S 28 32 15 17 1021.6 1021.6 0.0
18/07:00pm 21.5 18.3 16.2 72 3.2 SSW 28 32 15 17 1021.5 1021.5 0.0
18/06:30pm 21.4 18.2 16.4 73 3.0 SSW 28 33 15 18 1021.3 1021.3 0.0
18/06:00pm 21.6 18.3 17.0 75 2.8 SSW 30 33 16 18 1021.1 1021.1 0.0
18/05:30pm 21.8 18.4 15.9 69 3.5 SSW 28 33 15 18 1020.9 1020.9 0.0
18/05:00pm 21.9 18.9 16.8 73 3.1 SSW 28 33 15 18 1020.8 1020.8 0.0
18/04:30pm 22.2 19.5 16.7 71 3.4 SSW 26 32 14 17 1020.9 1020.9 0.0
18/04:00pm 22.1 19.4 16.6 71 3.3 SSW 26 30 14 16 1020.9 1020.9 0.0
18/03:30pm 22.3 20.1 17.0 72 3.2 SSW 24 28 13 15 1020.9 1020.9 0.0
18/03:00pm 22.6 20.8 16.9 70 3.5 SW 22 28 12 15 1020.9 1020.9 0.0
18/02:30pm 22.5 21.0 16.3 68 3.8 SW 19 22 10 12 1021.1 1021.1 0.0
18/02:00pm 22.6 21.1 16.4 68 3.8 SW 19 22 10 12 1021.3 1021.3 0.0
18/01:30pm 22.6 21.3 15.7 65 4.1 SW 17 20 9 11 1021.6 1021.6 0.0
18/01:00pm 22.5 20.7 16.1 67 3.9 SSW 20 20 11 11 1022.1 1022.1 0.0
18/12:30pm 23.2 22.4 16.0 64 4.4 SW 15 17 8 9 1022.7 1022.7 0.0
18/12:00pm 23.8 22.7 11.8 47 6.8 SW 9 15 5 8 1023.3 1023.3 0.0
18/11:30am 26.2 23.7 8.2 32 9.7 NNE 11 15 6 8 1023.7 1023.7 0.0
18/11:00am 25.7 23.3 8.7 34 9.2 NE 11 15 6 8 1024.1 1024.1 0.0
18/10:30am 24.6 21.9 9.0 37 8.4 ENE 13 17 7 9 1024.4 1024.4 0.0
18/10:00am 24.3 22.0 10.6 42 7.6 ENE 13 15 7 8 1024.6 1024.6 0.0
18/09:30am 22.8 20.2 9.2 42 7.3 ENE 13 19 7 10 1024.8 1024.8 0.0

Latest Capital City Observations: Canberra | Sydney | Melbourne | Brisbane | Adelaide | Perth | Hobart | Darwin

Other formats

Comma delimited format used in spreadsheet applications
http://www.bom.gov.au/fwo/IDW60901/IDW60901.95607.axf

JavaScript Object Notation format (JSON) in row-major order
http://www.bom.gov.au/fwo/IDW60901/IDW60901.95607.json

Data quality

Most of these data are generated automatically and are frequently updated. Quality checks on data are not normally performed. It is possible for incorrect values to appear. Refer to information at About Latest Weather Observations and please check the disclaimer before using these data.